sensor_id;sensor_type;location;lat;lon;timestamp;pressure;altitude;pressure_sealevel;temperature;humidity
61963;BME280;47927;42.646;23.096;2023-03-21T00:01:17;91992.63;;;12.72;36.99
61963;BME280;47927;42.646;23.096;2023-03-21T00:03:42;91986.66;;;12.72;36.93
61963;BME280;47927;42.646;23.096;2023-03-21T00:06:11;91987.78;;;12.71;37.09
61963;BME280;47927;42.646;23.096;2023-03-21T00:08:38;91980.72;;;12.50;37.85
61963;BME280;47927;42.646;23.096;2023-03-21T00:11:06;91981.47;;;12.47;38.04
61963;BME280;47927;42.646;23.096;2023-03-21T00:13:33;91982.97;;;12.48;38.14
61963;BME280;47927;42.646;23.096;2023-03-21T00:16:15;91983.34;;;12.32;38.67
61963;BME280;47927;42.646;23.096;2023-03-21T00:18:43;91985.94;;;12.03;39.27
61963;BME280;47927;42.646;23.096;2023-03-21T00:21:16;91983.69;;;12.16;38.55
61963;BME280;47927;42.646;23.096;2023-03-21T00:23:42;91969.53;;;12.17;38.62
61963;BME280;47927;42.646;23.096;2023-03-21T00:26:09;91987.06;;;12.06;39.47
61963;BME280;47927;42.646;23.096;2023-03-21T00:28:36;91978.31;;;11.34;41.10
61963;BME280;47927;42.646;23.096;2023-03-21T00:31:02;91980.47;;;11.17;41.59
61963;BME280;47927;42.646;23.096;2023-03-21T00:33:27;91980.88;;;11.23;41.30
61963;BME280;47927;42.646;23.096;2023-03-21T00:35:54;91976.72;;;11.04;41.58
61963;BME280;47927;42.646;23.096;2023-03-21T00:38:21;91967.88;;;11.30;41.02
61963;BME280;47927;42.646;23.096;2023-03-21T00:40:47;91968.63;;;11.41;40.54
61963;BME280;47927;42.646;23.096;2023-03-21T00:43:13;91974.97;;;11.40;40.42
61963;BME280;47927;42.646;23.096;2023-03-21T00:45:42;91983.94;;;11.39;40.01
61963;BME280;47927;42.646;23.096;2023-03-21T00:48:08;91979.78;;;11.31;40.02
61963;BME280;47927;42.646;23.096;2023-03-21T00:50:35;91978.28;;;11.23;40.50
61963;BME280;47927;42.646;23.096;2023-03-21T00:53:01;91976.03;;;11.22;40.35
61963;BME280;47927;42.646;23.096;2023-03-21T00:55:26;91977.53;;;11.19;40.83
61963;BME280;47927;42.646;23.096;2023-03-21T00:57:52;91969.28;;;11.10;40.66
61963;BME280;47927;42.646;23.096;2023-03-21T01:00:18;91949.03;;;10.75;41.35
61963;BME280;47927;42.646;23.096;2023-03-21T01:02:45;91971.94;;;10.47;42.19
61963;BME280;47927;42.646;23.096;2023-03-21T01:05:28;91966.22;;;10.27;42.81
61963;BME280;47927;42.646;23.096;2023-03-21T01:08:14;91960.69;;;10.36;42.02
61963;BME280;47927;42.646;23.096;2023-03-21T01:10:41;91964.81;;;10.41;42.17
61963;BME280;47927;42.646;23.096;2023-03-21T01:13:08;91967.81;;;10.43;42.43
61963;BME280;47927;42.646;23.096;2023-03-21T01:15:35;91960.72;;;10.40;42.38
61963;BME280;47927;42.646;23.096;2023-03-21T01:18:01;91964.13;;;9.99;43.37
61963;BME280;47927;42.646;23.096;2023-03-21T01:20:27;91958.06;;;9.85;43.82
61963;BME280;47927;42.646;23.096;2023-03-21T01:22:53;91960.00;;;9.98;43.54
61963;BME280;47927;42.646;23.096;2023-03-21T01:25:19;91963.47;;;10.10;43.10
61963;BME280;47927;42.646;23.096;2023-03-21T01:27:45;91941.16;;;10.09;42.84
61963;BME280;47927;42.646;23.096;2023-03-21T01:30:11;91952.22;;;9.98;43.37
61963;BME280;47927;42.646;23.096;2023-03-21T01:32:37;91924.41;;;9.62;43.64
61963;BME280;47927;42.646;23.096;2023-03-21T01:35:03;91947.22;;;9.79;43.68
61963;BME280;47927;42.646;23.096;2023-03-21T01:37:29;91952.72;;;9.70;43.88
61963;BME280;47927;42.646;23.096;2023-03-21T01:39:54;91938.63;;;9.75;43.54
61963;BME280;47927;42.646;23.096;2023-03-21T01:42:20;91953.88;;;9.73;43.76
61963;BME280;47927;42.646;23.096;2023-03-21T01:44:57;91942.16;;;9.52;44.54
61963;BME280;47927;42.646;23.096;2023-03-21T01:47:28;91946.66;;;9.55;44.19
61963;BME280;47927;42.646;23.096;2023-03-21T01:50:04;91948.97;;;9.64;44.00
61963;BME280;47927;42.646;23.096;2023-03-21T01:52:55;91950.19;;;9.81;43.70
61963;BME280;47927;42.646;23.096;2023-03-21T01:55:30;91953.47;;;9.71;43.80
61963;BME280;47927;42.646;23.096;2023-03-21T01:57:59;91926.59;;;9.59;43.75
61963;BME280;47927;42.646;23.096;2023-03-21T02:00:28;91946.81;;;9.73;43.82
61963;BME280;47927;42.646;23.096;2023-03-21T02:03:08;91944.53;;;9.68;43.98
61963;BME280;47927;42.646;23.096;2023-03-21T02:07:03;91939.88;;;9.47;44.55
61963;BME280;47927;42.646;23.096;2023-03-21T02:09:22;91935.94;;;9.27;45.23
61963;BME280;47927;42.646;23.096;2023-03-21T02:11:48;91928.47;;;9.22;45.37
61963;BME280;47927;42.646;23.096;2023-03-21T02:14:17;91929.13;;;9.11;45.80
61963;BME280;47927;42.646;23.096;2023-03-21T02:25:26;91938.03;;;9.10;45.86
61963;BME280;47927;42.646;23.096;2023-03-21T02:39:15;91918.06;;;8.84;46.55
61963;BME280;47927;42.646;23.096;2023-03-21T02:42:06;91929.66;;;8.94;46.54
61963;BME280;47927;42.646;23.096;2023-03-21T02:44:41;91928.13;;;8.89;46.54
61963;BME280;47927;42.646;23.096;2023-03-21T02:47:13;91941.03;;;8.03;48.98
61963;BME280;47927;42.646;23.096;2023-03-21T02:49:57;91934.28;;;8.48;48.26
61963;BME280;47927;42.646;23.096;2023-03-21T02:52:32;91944.38;;;8.83;47.52
61963;BME280;47927;42.646;23.096;2023-03-21T02:55:00;91947.56;;;9.03;46.87
61963;BME280;47927;42.646;23.096;2023-03-21T02:57:34;91936.41;;;8.99;47.41
61963;BME280;47927;42.646;23.096;2023-03-21T03:00:02;91915.97;;;8.97;47.00
61963;BME280;47927;42.646;23.096;2023-03-21T03:02:37;91943.59;;;9.12;47.15
61963;BME280;47927;42.646;23.096;2023-03-21T03:05:12;91949.47;;;9.06;47.43
61963;BME280;47927;42.646;23.096;2023-03-21T03:10:51;91940.16;;;9.01;47.60
61963;BME280;47927;42.646;23.096;2023-03-21T03:16:27;91939.94;;;8.83;47.79
61963;BME280;47927;42.646;23.096;2023-03-21T03:19:03;91945.78;;;8.77;47.93
61963;BME280;47927;42.646;23.096;2023-03-21T03:24:37;91940.06;;;8.37;49.55
61963;BME280;47927;42.646;23.096;2023-03-21T03:27:14;91942.75;;;8.18;50.11
61963;BME280;47927;42.646;23.096;2023-03-21T03:29:45;91927.97;;;7.95;50.62
61963;BME280;47927;42.646;23.096;2023-03-21T03:32:22;91939.16;;;7.53;51.87
61963;BME280;47927;42.646;23.096;2023-03-21T03:34:51;91940.06;;;7.88;51.36
61963;BME280;47927;42.646;23.096;2023-03-21T03:37:27;91938.44;;;8.29;50.01
61963;BME280;47927;42.646;23.096;2023-03-21T03:40:10;91934.38;;;8.28;49.50
61963;BME280;47927;42.646;23.096;2023-03-21T03:42:51;91931.38;;;8.26;49.66
61963;BME280;47927;42.646;23.096;2023-03-21T03:45:37;91938.06;;;8.27;50.15
61963;BME280;47927;42.646;23.096;2023-03-21T03:48:28;91928.69;;;8.46;49.80
61963;BME280;47927;42.646;23.096;2023-03-21T03:51:06;91917.34;;;8.04;50.20
61963;BME280;47927;42.646;23.096;2023-03-21T03:54:15;91921.63;;;8.19;49.84
61963;BME280;47927;42.646;23.096;2023-03-21T03:56:42;91914.31;;;8.25;49.66
61963;BME280;47927;42.646;23.096;2023-03-21T03:59:08;91918.84;;;8.32;48.82
61963;BME280;47927;42.646;23.096;2023-03-21T04:01:57;91921.84;;;7.84;50.53
61963;BME280;47927;42.646;23.096;2023-03-21T04:04:22;91922.38;;;7.93;50.53
61963;BME280;47927;42.646;23.096;2023-03-21T04:06:54;91925.69;;;8.17;49.55
61963;BME280;47927;42.646;23.096;2023-03-21T04:09:22;91910.34;;;8.35;48.90
61963;BME280;47927;42.646;23.096;2023-03-21T04:11:48;91910.75;;;8.37;48.15
61963;BME280;47927;42.646;23.096;2023-03-21T04:14:14;91898.66;;;8.18;48.65
61963;BME280;47927;42.646;23.096;2023-03-21T04:16:40;91904.81;;;7.83;49.74
61963;BME280;47927;42.646;23.096;2023-03-21T04:19:06;91898.22;;;7.89;50.05
61963;BME280;47927;42.646;23.096;2023-03-21T04:21:31;91895.59;;;7.86;49.82
61963;BME280;47927;42.646;23.096;2023-03-21T04:23:59;91907.53;;;7.94;49.60
61963;BME280;47927;42.646;23.096;2023-03-21T04:26:25;91901.16;;;7.88;49.29
61963;BME280;47927;42.646;23.096;2023-03-21T04:29:13;91907.06;;;7.62;50.88
61963;BME280;47927;42.646;23.096;2023-03-21T04:32:02;91915.06;;;7.76;50.73
61963;BME280;47927;42.646;23.096;2023-03-21T04:34:28;91920.41;;;7.87;50.64
61963;BME280;47927;42.646;23.096;2023-03-21T04:36:57;91910.28;;;7.78;51.04
61963;BME280;47927;42.646;23.096;2023-03-21T04:39:22;91917.19;;;7.93;50.54
61963;BME280;47927;42.646;23.096;2023-03-21T04:41:49;91907.59;;;7.48;51.30
61963;BME280;47927;42.646;23.096;2023-03-21T04:44:15;91910.84;;;7.91;50.72
61963;BME280;47927;42.646;23.096;2023-03-21T04:46:42;91911.16;;;7.86;50.99
61963;BME280;47927;42.646;23.096;2023-03-21T04:49:09;91891.19;;;7.90;50.27
61963;BME280;47927;42.646;23.096;2023-03-21T04:51:35;91920.88;;;7.92;50.58
61963;BME280;47927;42.646;23.096;2023-03-21T04:54:02;91921.34;;;8.25;49.78
61963;BME280;47927;42.646;23.096;2023-03-21T04:56:29;91920.00;;;8.34;49.65
61963;BME280;47927;42.646;23.096;2023-03-21T04:59:08;91912.50;;;8.86;48.38
61963;BME280;47927;42.646;23.096;2023-03-21T05:01:53;91911.19;;;9.03;47.88
61963;BME280;47927;42.646;23.096;2023-03-21T05:04:21;91916.84;;;9.08;47.54
61963;BME280;47927;42.646;23.096;2023-03-21T05:06:46;91922.53;;;9.21;47.70
61963;BME280;47927;42.646;23.096;2023-03-21T05:09:15;91923.34;;;9.29;47.38
61963;BME280;47927;42.646;23.096;2023-03-21T05:11:41;91925.28;;;9.35;47.37
61963;BME280;47927;42.646;23.096;2023-03-21T05:14:11;91924.19;;;9.03;48.43
61963;BME280;47927;42.646;23.096;2023-03-21T05:16:39;91929.88;;;9.16;47.60
61963;BME280;47927;42.646;23.096;2023-03-21T05:19:10;91929.34;;;8.99;48.04
61963;BME280;47927;42.646;23.096;2023-03-21T05:21:39;91903.34;;;8.65;49.12
61963;BME280;47927;42.646;23.096;2023-03-21T05:24:15;91930.56;;;8.75;49.36
61963;BME280;47927;42.646;23.096;2023-03-21T05:26:42;91937.44;;;9.28;48.61
61963;BME280;47927;42.646;23.096;2023-03-21T05:29:13;91931.41;;;9.57;47.54
61963;BME280;47927;42.646;23.096;2023-03-21T05:31:40;91933.16;;;9.87;47.15
61963;BME280;47927;42.646;23.096;2023-03-21T05:34:11;91929.91;;;9.53;47.30
61963;BME280;47927;42.646;23.096;2023-03-21T05:36:36;91909.13;;;9.56;46.88
61963;BME280;47927;42.646;23.096;2023-03-21T05:39:06;91929.91;;;9.97;46.77
61963;BME280;47927;42.646;23.096;2023-03-21T05:41:50;91928.00;;;10.42;45.34
61963;BME280;47927;42.646;23.096;2023-03-21T05:44:16;91925.97;;;10.80;45.10
61963;BME280;47927;42.646;23.096;2023-03-21T05:46:42;91922.16;;;10.60;44.13
61963;BME280;47927;42.646;23.096;2023-03-21T05:49:09;91919.03;;;11.27;42.95
61963;BME280;47927;42.646;23.096;2023-03-21T05:51:34;91924.03;;;11.93;41.51
61963;BME280;47927;42.646;23.096;2023-03-21T05:54:00;91925.91;;;12.14;42.54
61963;BME280;47927;42.646;23.096;2023-03-21T05:56:25;91923.97;;;12.54;40.78
61963;BME280;47927;42.646;23.096;2023-03-21T05:58:55;91915.22;;;13.07;41.11
61963;BME280;47927;42.646;23.096;2023-03-21T06:01:22;91916.56;;;13.44;40.69
61963;BME280;47927;42.646;23.096;2023-03-21T06:03:55;91901.47;;;14.18;39.13
61963;BME280;47927;42.646;23.096;2023-03-21T06:06:23;91910.19;;;14.49;38.29
61963;BME280;47927;42.646;23.096;2023-03-21T06:08:59;91906.81;;;14.45;38.19
61963;BME280;47927;42.646;23.096;2023-03-21T06:11:31;91887.38;;;14.46;38.01
61963;BME280;47927;42.646;23.096;2023-03-21T06:14:19;91912.25;;;14.69;38.13
61963;BME280;47927;42.646;23.096;2023-03-21T06:16:56;91899.06;;;14.76;38.15
61963;BME280;47927;42.646;23.096;2023-03-21T06:19:23;91901.25;;;14.81;38.30
61963;BME280;47927;42.646;23.096;2023-03-21T06:22:01;91897.09;;;14.84;38.87
61963;BME280;47927;42.646;23.096;2023-03-21T06:24:28;91901.06;;;14.99;38.15
61963;BME280;47927;42.646;23.096;2023-03-21T06:26:54;91902.91;;;15.33;37.92
61963;BME280;47927;42.646;23.096;2023-03-21T06:29:20;91899.66;;;15.52;37.00
61963;BME280;47927;42.646;23.096;2023-03-21T06:31:48;91904.34;;;15.64;36.76
61963;BME280;47927;42.646;23.096;2023-03-21T06:34:14;91900.94;;;15.40;37.26
61963;BME280;47927;42.646;23.096;2023-03-21T06:36:39;91902.69;;;15.20;37.42
61963;BME280;47927;42.646;23.096;2023-03-21T06:39:05;91917.81;;;15.09;38.38
61963;BME280;47927;42.646;23.096;2023-03-21T06:41:35;91911.59;;;14.12;39.98
61963;BME280;47927;42.646;23.096;2023-03-21T06:44:02;91920.38;;;14.40;39.11
61963;BME280;47927;42.646;23.096;2023-03-21T06:46:32;91913.91;;;14.48;38.93
61963;BME280;47927;42.646;23.096;2023-03-21T06:48:58;91918.28;;;14.66;39.62
61963;BME280;47927;42.646;23.096;2023-03-21T06:51:24;91866.84;;;14.38;38.55
61963;BME280;47927;42.646;23.096;2023-03-21T06:54:10;91916.84;;;15.57;36.64
61963;BME280;47927;42.646;23.096;2023-03-21T06:56:45;91898.78;;;16.13;36.09
61963;BME280;47927;42.646;23.096;2023-03-21T06:59:18;91911.41;;;16.45;34.56
61963;BME280;47927;42.646;23.096;2023-03-21T07:01:57;91907.84;;;14.96;36.62
61963;BME280;47927;42.646;23.096;2023-03-21T07:04:23;91912.09;;;14.42;37.72
61963;BME280;47927;42.646;23.096;2023-03-21T07:06:52;91913.06;;;14.17;37.53
61963;BME280;47927;42.646;23.096;2023-03-21T07:09:20;91922.31;;;13.84;39.17
61963;BME280;47927;42.646;23.096;2023-03-21T07:11:49;91920.59;;;13.56;38.98
61963;BME280;47927;42.646;23.096;2023-03-21T07:14:19;91916.66;;;13.89;37.90
61963;BME280;47927;42.646;23.096;2023-03-21T07:17:02;91913.66;;;14.35;36.60
61963;BME280;47927;42.646;23.096;2023-03-21T07:19:28;91918.41;;;14.51;37.26
61963;BME280;47927;42.646;23.096;2023-03-21T07:21:54;91908.66;;;14.48;37.43
61963;BME280;47927;42.646;23.096;2023-03-21T07:24:19;91924.88;;;14.36;36.98
61963;BME280;47927;42.646;23.096;2023-03-21T07:26:45;91926.94;;;14.97;36.31
61963;BME280;47927;42.646;23.096;2023-03-21T07:29:11;91932.47;;;15.37;35.08
61963;BME280;47927;42.646;23.096;2023-03-21T07:31:36;91932.16;;;15.62;34.44
61963;BME280;47927;42.646;23.096;2023-03-21T07:34:04;91925.09;;;15.86;34.99
61963;BME280;47927;42.646;23.096;2023-03-21T07:36:30;91932.97;;;16.36;33.88
61963;BME280;47927;42.646;23.096;2023-03-21T07:38:56;91934.19;;;16.75;33.17
61963;BME280;47927;42.646;23.096;2023-03-21T07:41:22;91936.03;;;16.78;33.00
61963;BME280;47927;42.646;23.096;2023-03-21T07:44:06;91928.50;;;17.00;32.88
61963;BME280;47927;42.646;23.096;2023-03-21T07:46:32;91928.97;;;16.95;32.71
61963;BME280;47927;42.646;23.096;2023-03-21T07:48:57;91919.25;;;16.92;32.39
61963;BME280;47927;42.646;23.096;2023-03-21T07:51:24;91928.84;;;17.02;32.88
61963;BME280;47927;42.646;23.096;2023-03-21T07:53:49;91923.59;;;17.22;33.33
61963;BME280;47927;42.646;23.096;2023-03-21T07:56:15;91926.09;;;17.46;32.26
61963;BME280;47927;42.646;23.096;2023-03-21T07:58:40;91925.66;;;17.67;30.99
61963;BME280;47927;42.646;23.096;2023-03-21T08:01:06;91926.41;;;17.68;31.02
61963;BME280;47927;42.646;23.096;2023-03-21T08:03:31;91918.81;;;18.06;29.97
61963;BME280;47927;42.646;23.096;2023-03-21T08:05:58;91905.47;;;18.30;29.78
61963;BME280;47927;42.646;23.096;2023-03-21T08:08:27;91928.59;;;18.71;29.14
61963;BME280;47927;42.646;23.096;2023-03-21T08:10:52;91918.25;;;18.77;29.64
61963;BME280;47927;42.646;23.096;2023-03-21T08:13:18;91924.50;;;17.12;32.81
61963;BME280;47927;42.646;23.096;2023-03-21T08:15:44;91930.19;;;16.91;33.71
61963;BME280;47927;42.646;23.096;2023-03-21T08:18:09;91928.38;;;17.07;34.30
61963;BME280;47927;42.646;23.096;2023-03-21T08:20:35;91918.94;;;16.90;33.79
61963;BME280;47927;42.646;23.096;2023-03-21T08:23:01;91919.41;;;17.61;32.04
61963;BME280;47927;42.646;23.096;2023-03-21T08:25:27;91897.09;;;17.66;30.75
61963;BME280;47927;42.646;23.096;2023-03-21T08:27:53;91915.88;;;18.20;29.84
61963;BME280;47927;42.646;23.096;2023-03-21T08:30:21;91900.44;;;18.19;28.87
61963;BME280;47927;42.646;23.096;2023-03-21T08:32:47;91905.13;;;17.79;28.66
61963;BME280;47927;42.646;23.096;2023-03-21T08:35:14;91913.69;;;18.32;28.09
61963;BME280;47927;42.646;23.096;2023-03-21T08:37:41;91915.97;;;18.62;27.86
61963;BME280;47927;42.646;23.096;2023-03-21T08:40:10;91924.88;;;18.52;27.62
61963;BME280;47927;42.646;23.096;2023-03-21T08:42:37;91922.34;;;17.47;29.49
61963;BME280;47927;42.646;23.096;2023-03-21T08:45:04;91919.41;;;17.61;31.09
61963;BME280;47927;42.646;23.096;2023-03-21T08:47:30;91919.16;;;17.72;28.77
61963;BME280;47927;42.646;23.096;2023-03-21T08:49:56;91921.94;;;16.89;29.86
61963;BME280;47927;42.646;23.096;2023-03-21T08:52:21;91927.88;;;16.49;31.34
61963;BME280;47927;42.646;23.096;2023-03-21T08:54:47;91922.53;;;16.53;29.96
61963;BME280;47927;42.646;23.096;2023-03-21T08:57:13;91905.66;;;16.07;30.70
61963;BME280;47927;42.646;23.096;2023-03-21T08:59:39;91910.16;;;15.79;31.42
61963;BME280;47927;42.646;23.096;2023-03-21T09:02:05;91926.09;;;15.95;30.98
61963;BME280;47927;42.646;23.096;2023-03-21T09:04:31;91917.69;;;16.51;31.00
61963;BME280;47927;42.646;23.096;2023-03-21T09:06:57;91925.59;;;16.04;30.75
61963;BME280;47927;42.646;23.096;2023-03-21T09:09:28;91906.97;;;15.68;31.59
61963;BME280;47927;42.646;23.096;2023-03-21T09:11:53;91897.13;;;16.46;30.87
61963;BME280;47927;42.646;23.096;2023-03-21T09:14:19;91889.38;;;17.02;29.45
61963;BME280;47927;42.646;23.096;2023-03-21T09:16:44;91894.78;;;16.52;30.63
61963;BME280;47927;42.646;23.096;2023-03-21T09:19:10;91889.41;;;16.12;30.80
61963;BME280;47927;42.646;23.096;2023-03-21T09:21:37;91880.38;;;15.89;31.93
61963;BME280;47927;42.646;23.096;2023-03-21T09:24:03;91880.78;;;16.35;31.51
61963;BME280;47927;42.646;23.096;2023-03-21T09:26:31;91854.53;;;16.95;30.10
61963;BME280;47927;42.646;23.096;2023-03-21T09:28:58;91875.75;;;17.44;29.53
61963;BME280;47927;42.646;23.096;2023-03-21T09:31:25;91875.22;;;17.33;29.77
61963;BME280;47927;42.646;23.096;2023-03-21T09:33:53;91878.34;;;17.27;30.05
61963;BME280;47927;42.646;23.096;2023-03-21T09:36:20;91876.50;;;17.24;29.29
61963;BME280;47927;42.646;23.096;2023-03-21T09:38:49;91871.44;;;17.34;29.80
61963;BME280;47927;42.646;23.096;2023-03-21T09:47:24;91857.94;;;18.01;29.15
61963;BME280;47927;42.646;23.096;2023-03-21T09:52:50;91854.03;;;18.83;28.53
61963;BME280;47927;42.646;23.096;2023-03-21T09:55:23;91851.66;;;19.27;27.72
61963;BME280;47927;42.646;23.096;2023-03-21T09:59:05;91843.75;;;19.53;27.56
61963;BME280;47927;42.646;23.096;2023-03-21T10:03:32;91824.44;;;20.29;26.27
61963;BME280;47927;42.646;23.096;2023-03-21T10:06:11;91829.66;;;20.99;25.43
61963;BME280;47927;42.646;23.096;2023-03-21T10:08:41;91830.78;;;21.42;24.74
61963;BME280;47927;42.646;23.096;2023-03-21T10:11:16;91842.47;;;20.56;24.90
61963;BME280;47927;42.646;23.096;2023-03-21T10:16:30;91839.41;;;20.80;24.76
61963;BME280;47927;42.646;23.096;2023-03-21T10:19:17;91842.47;;;21.00;24.16
61963;BME280;47927;42.646;23.096;2023-03-21T10:21:47;91834.19;;;20.19;25.51
61963;BME280;47927;42.646;23.096;2023-03-21T10:24:18;91839.09;;;19.95;26.67
61963;BME280;47927;42.646;23.096;2023-03-21T10:26:44;91852.59;;;20.70;25.39
61963;BME280;47927;42.646;23.096;2023-03-21T10:29:16;91850.44;;;19.96;26.43
61963;BME280;47927;42.646;23.096;2023-03-21T10:31:44;91853.25;;;20.01;26.46
61963;BME280;47927;42.646;23.096;2023-03-21T10:34:38;91855.63;;;20.91;25.88
61963;BME280;47927;42.646;23.096;2023-03-21T10:37:06;91860.03;;;19.26;27.19
61963;BME280;47927;42.646;23.096;2023-03-21T10:42:00;91850.78;;;20.89;25.05
61963;BME280;47927;42.646;23.096;2023-03-21T10:44:34;91851.19;;;21.32;24.46
61963;BME280;47927;42.646;23.096;2023-03-21T10:47:05;91848.06;;;21.87;23.62
61963;BME280;47927;42.646;23.096;2023-03-21T10:49:31;91849.13;;;21.98;23.14
61963;BME280;47927;42.646;23.096;2023-03-21T10:51:58;91839.63;;;21.79;23.85
61963;BME280;47927;42.646;23.096;2023-03-21T10:54:34;91818.22;;;22.23;23.30
61963;BME280;47927;42.646;23.096;2023-03-21T10:59:38;91836.38;;;22.52;22.63
61963;BME280;47927;42.646;23.096;2023-03-21T11:02:34;91829.19;;;21.94;23.31
61963;BME280;47927;42.646;23.096;2023-03-21T11:05:06;91831.19;;;21.71;23.79
61963;BME280;47927;42.646;23.096;2023-03-21T11:07:34;91836.06;;;21.73;22.98
61963;BME280;47927;42.646;23.096;2023-03-21T11:10:14;91834.97;;;20.99;24.16
61963;BME280;47927;42.646;23.096;2023-03-21T11:12:45;91827.94;;;20.26;25.09
61963;BME280;47927;42.646;23.096;2023-03-21T11:17:52;91832.13;;;19.25;26.08
61963;BME280;47927;42.646;23.096;2023-03-21T11:20:19;91804.44;;;19.42;26.29
61963;BME280;47927;42.646;23.096;2023-03-21T11:22:45;91815.13;;;19.26;26.20
61963;BME280;47927;42.646;23.096;2023-03-21T11:25:35;91800.66;;;19.30;26.67
61963;BME280;47927;42.646;23.096;2023-03-21T11:28:11;91798.22;;;19.49;26.55
61963;BME280;47927;42.646;23.096;2023-03-21T11:30:48;91810.13;;;19.92;25.63
61963;BME280;47927;42.646;23.096;2023-03-21T11:33:17;91801.50;;;20.48;25.92
61963;BME280;47927;42.646;23.096;2023-03-21T11:35:57;91802.84;;;20.65;25.18
61963;BME280;47927;42.646;23.096;2023-03-21T11:38:26;91809.91;;;20.68;25.52
61963;BME280;47927;42.646;23.096;2023-03-21T11:40:58;91795.03;;;20.27;25.17
61963;BME280;47927;42.646;23.096;2023-03-21T11:43:27;91794.41;;;19.63;26.33
61963;BME280;47927;42.646;23.096;2023-03-21T11:48:23;91793.13;;;18.90;26.96
61963;BME280;47927;42.646;23.096;2023-03-21T11:50:49;91790.72;;;18.67;27.02
61963;BME280;47927;42.646;23.096;2023-03-21T11:53:45;91785.22;;;17.87;28.65
61963;BME280;47927;42.646;23.096;2023-03-21T11:56:21;91775.66;;;18.09;27.57
61963;BME280;47927;42.646;23.096;2023-03-21T12:21:19;91755.31;;;18.94;28.01
61963;BME280;47927;42.646;23.096;2023-03-21T12:32:10;91752.34;;;18.79;28.34
61963;BME280;47927;42.646;23.096;2023-03-21T12:41:36;91745.09;;;19.08;28.45
61963;BME280;47927;42.646;23.096;2023-03-21T12:46:42;91746.03;;;20.00;27.41
61963;BME280;47927;42.646;23.096;2023-03-21T12:49:35;91744.66;;;19.35;27.41
61963;BME280;47927;42.646;23.096;2023-03-21T12:52:11;91742.84;;;18.10;29.29
61963;BME280;47927;42.646;23.096;2023-03-21T12:57:31;91728.81;;;19.35;27.60
61963;BME280;47927;42.646;23.096;2023-03-21T13:00:04;91722.78;;;18.29;27.81
61963;BME280;47927;42.646;23.096;2023-03-21T13:02:39;91726.75;;;17.75;28.18
61963;BME280;47927;42.646;23.096;2023-03-21T13:05:49;91718.63;;;18.15;28.39
61963;BME280;47927;42.646;23.096;2023-03-21T13:11:00;91721.44;;;17.63;28.14
61963;BME280;47927;42.646;23.096;2023-03-21T13:19:41;91710.38;;;18.13;27.39
61963;BME280;47927;42.646;23.096;2023-03-21T13:24:33;91715.16;;;17.89;27.71
61963;BME280;47927;42.646;23.096;2023-03-21T13:32:29;91700.53;;;18.01;28.06
61963;BME280;47927;42.646;23.096;2023-03-21T13:35:11;91703.28;;;18.27;27.76
61963;BME280;47927;42.646;23.096;2023-03-21T13:37:40;91704.41;;;18.26;28.21
61963;BME280;47927;42.646;23.096;2023-03-21T13:40:23;91695.50;;;18.49;28.00
61963;BME280;47927;42.646;23.096;2023-03-21T13:42:51;91691.63;;;18.53;27.75
61963;BME280;47927;42.646;23.096;2023-03-21T13:45:30;91693.03;;;18.83;27.43
61963;BME280;47927;42.646;23.096;2023-03-21T13:48:04;91685.50;;;18.69;27.24
61963;BME280;47927;42.646;23.096;2023-03-21T13:51:26;91689.41;;;18.64;28.14
61963;BME280;47927;42.646;23.096;2023-03-21T13:53:35;91689.16;;;18.46;28.06
61963;BME280;47927;42.646;23.096;2023-03-21T14:04:18;91688.53;;;18.00;27.63
61963;BME280;47927;42.646;23.096;2023-03-21T14:09:45;91676.84;;;17.56;28.18
61963;BME280;47927;42.646;23.096;2023-03-21T14:12:17;91679.91;;;17.38;28.56
61963;BME280;47927;42.646;23.096;2023-03-21T14:14:50;91682.63;;;17.01;29.31
61963;BME280;47927;42.646;23.096;2023-03-21T14:17:31;91677.59;;;16.54;30.17
61963;BME280;47927;42.646;23.096;2023-03-21T14:22:26;91681.72;;;16.35;30.64
61963;BME280;47927;42.646;23.096;2023-03-21T14:24:57;91678.28;;;17.11;29.91
61963;BME280;47927;42.646;23.096;2023-03-21T14:27:27;91676.06;;;16.73;29.95
61963;BME280;47927;42.646;23.096;2023-03-21T14:29:54;91664.56;;;16.67;29.81
61963;BME280;47927;42.646;23.096;2023-03-21T14:32:25;91677.97;;;16.36;30.43
61963;BME280;47927;42.646;23.096;2023-03-21T14:34:53;91684.63;;;16.41;30.58
61963;BME280;47927;42.646;23.096;2023-03-21T14:37:40;91679.53;;;16.34;30.86
61963;BME280;47927;42.646;23.096;2023-03-21T14:40:22;91678.25;;;16.78;30.64
61963;BME280;47927;42.646;23.096;2023-03-21T14:42:49;91674.88;;;16.78;30.96
61963;BME280;47927;42.646;23.096;2023-03-21T14:45:26;91684.00;;;17.39;29.78
61963;BME280;47927;42.646;23.096;2023-03-21T14:50:24;91681.00;;;17.69;29.05
61963;BME280;47927;42.646;23.096;2023-03-21T14:52:52;91675.50;;;17.80;29.56
61963;BME280;47927;42.646;23.096;2023-03-21T14:55:18;91683.91;;;17.59;30.73
61963;BME280;47927;42.646;23.096;2023-03-21T14:58:03;91686.66;;;17.22;32.51
61963;BME280;47927;42.646;23.096;2023-03-21T15:00:30;91694.38;;;17.29;33.72
61963;BME280;47927;42.646;23.096;2023-03-21T15:02:58;91679.06;;;16.55;34.35
61963;BME280;47927;42.646;23.096;2023-03-21T15:05:31;91693.88;;;16.29;34.24
61963;BME280;47927;42.646;23.096;2023-03-21T15:08:00;91703.06;;;16.21;35.18
61963;BME280;47927;42.646;23.096;2023-03-21T15:10:29;91712.50;;;16.18;37.53
61963;BME280;47927;42.646;23.096;2023-03-21T15:13:00;91719.09;;;16.07;36.88
61963;BME280;47927;42.646;23.096;2023-03-21T15:15:27;91718.53;;;15.95;36.99
61963;BME280;47927;42.646;23.096;2023-03-21T15:17:57;91714.09;;;15.22;38.56
61963;BME280;47927;42.646;23.096;2023-03-21T15:20:27;91743.47;;;14.86;42.63
61963;BME280;47927;42.646;23.096;2023-03-21T15:22:57;91740.16;;;14.55;42.44